createdAt,value
2023-05-05T00:00:59.938Z,2.30
2023-05-05T00:03:27.601Z,2.50
2023-05-05T00:05:55.499Z,2.23
2023-05-05T00:08:26.193Z,2.00
2023-05-05T00:10:54.138Z,2.70
2023-05-05T00:13:22.828Z,2.80
2023-05-05T00:15:51.844Z,2.33
2023-05-05T00:18:19.521Z,2.77
2023-05-05T00:20:47.272Z,2.10
2023-05-05T00:23:15.264Z,2.80
2023-05-05T00:25:42.770Z,2.70
2023-05-05T00:28:10.519Z,2.30
2023-05-05T00:30:40.234Z,2.23
2023-05-05T00:33:07.696Z,2.40
2023-05-05T00:35:35.191Z,2.27
2023-05-05T00:38:02.947Z,2.50
2023-05-05T00:40:30.360Z,2.33
2023-05-05T00:43:00.361Z,2.40
2023-05-05T00:45:28.404Z,1.87
2023-05-05T00:47:59.970Z,2.27
2023-05-05T00:50:28.740Z,2.20
2023-05-05T00:52:57.449Z,2.30
2023-05-05T00:55:24.976Z,2.60
2023-05-05T00:57:52.696Z,2.53
2023-05-05T01:00:20.067Z,2.30
2023-05-05T01:02:47.456Z,2.10
2023-05-05T01:05:17.091Z,2.20
2023-05-05T01:07:49.413Z,1.90
2023-05-05T01:10:30.749Z,2.60
2023-05-05T01:13:03.318Z,2.13
2023-05-05T01:15:32.887Z,2.23
2023-05-05T01:18:01.520Z,2.10
2023-05-05T01:20:34.107Z,2.20
2023-05-05T01:23:03.905Z,2.53
2023-05-05T01:25:46.203Z,2.20
2023-05-05T01:28:20.554Z,2.50
2023-05-05T01:30:59.543Z,2.20
2023-05-05T01:33:34.978Z,1.97
2023-05-05T01:36:05.084Z,2.33
2023-05-05T01:38:34.720Z,2.50
2023-05-05T01:41:03.723Z,1.97
2023-05-05T01:43:32.177Z,2.17
2023-05-05T01:46:00.392Z,2.50
2023-05-05T01:48:29.742Z,2.43
2023-05-05T01:50:58.569Z,2.30
2023-05-05T01:53:26.631Z,2.40
2023-05-05T01:55:55.319Z,2.67
2023-05-05T01:58:23.283Z,2.43
2023-05-05T02:00:51.252Z,2.60
2023-05-05T02:03:19.039Z,2.20
2023-05-05T02:05:46.705Z,2.20
2023-05-05T02:08:16.788Z,2.10
2023-05-05T02:10:44.792Z,2.30
2023-05-05T02:13:13.761Z,2.20
2023-05-05T02:15:41.595Z,2.57
2023-05-05T02:18:10.313Z,2.20
2023-05-05T02:20:38.351Z,2.33
2023-05-05T02:23:07.733Z,2.50
2023-05-05T02:25:39.157Z,2.40
2023-05-05T02:28:08.384Z,2.50
2023-05-05T02:30:37.026Z,2.37
2023-05-05T02:33:07.991Z,2.40
2023-05-05T02:35:37.409Z,2.33
2023-05-05T02:38:10.209Z,2.20
2023-05-05T02:40:42.602Z,2.40
2023-05-05T02:43:15.783Z,2.47
2023-05-05T02:45:43.266Z,2.43
2023-05-05T02:48:12.941Z,3.00
2023-05-05T02:50:40.781Z,2.43
2023-05-05T02:53:17.199Z,2.57
2023-05-05T02:55:48.783Z,2.93
2023-05-05T02:58:21.330Z,2.67
2023-05-05T03:00:53.503Z,2.50
2023-05-05T03:03:25.675Z,2.63
2023-05-05T03:05:56.308Z,2.30
2023-05-05T03:08:28.959Z,2.43
2023-05-05T03:10:59.815Z,2.43
2023-05-05T03:13:27.412Z,2.47
2023-05-05T03:15:55.725Z,2.60
2023-05-05T03:18:26.071Z,2.23
2023-05-05T03:21:07.826Z,2.50
2023-05-05T03:23:37.014Z,2.20
2023-05-05T03:26:09.512Z,2.33
2023-05-05T03:28:41.122Z,2.30
2023-05-05T03:31:16.618Z,2.67
2023-05-05T03:33:43.985Z,2.80
2023-05-05T03:36:11.839Z,2.67
2023-05-05T03:38:40.158Z,2.33
2023-05-05T03:41:08.850Z,2.70
2023-05-05T03:43:36.212Z,2.70
2023-05-05T03:46:03.750Z,2.63
2023-05-05T03:48:31.488Z,2.57
2023-05-05T03:50:59.060Z,2.67
2023-05-05T03:53:28.263Z,2.47
2023-05-05T03:55:55.883Z,3.20
2023-05-05T03:58:24.611Z,3.00
2023-05-05T04:00:52.185Z,2.80
2023-05-05T04:03:21.539Z,3.00
2023-05-05T04:05:49.088Z,3.20
2023-05-05T04:08:16.616Z,4.10
2023-05-05T04:10:43.992Z,4.50
2023-05-05T04:13:11.816Z,3.67
2023-05-05T04:15:44.980Z,3.53
2023-05-05T04:18:12.689Z,3.83
2023-05-05T04:20:40.300Z,4.07
2023-05-05T04:23:07.858Z,5.77
2023-05-05T04:25:36.204Z,5.67
2023-05-05T04:28:04.106Z,5.43
2023-05-05T04:30:32.666Z,10.43
2023-05-05T04:33:01.425Z,11.30
2023-05-05T04:35:29.586Z,9.03
2023-05-05T04:37:57.788Z,9.13
2023-05-05T04:40:26.168Z,9.27
2023-05-05T04:42:54.453Z,14.70
2023-05-05T04:45:22.721Z,12.73
2023-05-05T04:47:50.427Z,10.77
2023-05-05T04:50:19.402Z,10.53
2023-05-05T04:52:46.786Z,7.40
2023-05-05T04:55:14.233Z,6.43
2023-05-05T04:57:41.903Z,3.83
2023-05-05T05:00:10.293Z,3.23
2023-05-05T05:02:39.501Z,3.50
2023-05-05T05:05:07.395Z,3.20
2023-05-05T05:07:36.099Z,3.03
2023-05-05T05:10:04.233Z,3.00
2023-05-05T05:12:32.311Z,3.00
2023-05-05T05:14:59.733Z,2.77
2023-05-05T05:17:27.374Z,2.67
2023-05-05T05:19:56.110Z,2.53
2023-05-05T05:22:23.607Z,2.40
2023-05-05T05:24:52.758Z,2.53
2023-05-05T05:27:20.471Z,2.17
2023-05-05T05:29:50.067Z,2.37
2023-05-05T05:32:18.019Z,2.47
2023-05-05T05:34:46.665Z,2.40
2023-05-05T05:37:14.578Z,2.80
2023-05-05T05:39:43.515Z,2.47
2023-05-05T05:42:13.109Z,2.50
2023-05-05T05:44:41.199Z,2.30
2023-05-05T05:47:08.681Z,3.23
2023-05-05T05:49:36.274Z,2.50
2023-05-05T05:52:03.694Z,2.30
2023-05-05T05:54:32.675Z,2.80
2023-05-05T05:57:00.063Z,3.00
2023-05-05T05:59:29.376Z,2.43
2023-05-05T06:01:56.796Z,2.50
2023-05-05T06:04:24.258Z,2.80
2023-05-05T06:06:51.718Z,2.80
2023-05-05T06:09:19.154Z,2.20
2023-05-05T06:11:46.755Z,2.60
2023-05-05T06:14:14.118Z,2.07
2023-05-05T06:16:42.902Z,2.50
2023-05-05T06:19:14.070Z,2.10
2023-05-05T06:21:41.543Z,2.30
2023-05-05T06:24:09.228Z,2.13
2023-05-05T06:26:37.091Z,2.33
2023-05-05T06:29:04.642Z,2.23
2023-05-05T06:31:32.030Z,2.17
2023-05-05T06:34:00.731Z,2.07
2023-05-05T06:36:28.120Z,2.23
2023-05-05T06:38:55.568Z,2.57
2023-05-05T06:41:22.903Z,2.10
2023-05-05T06:43:50.501Z,2.10
2023-05-05T06:46:17.878Z,2.00
2023-05-05T06:48:45.450Z,2.30
2023-05-05T06:51:15.459Z,2.00
2023-05-05T06:53:42.810Z,2.40
2023-05-05T06:56:11.329Z,2.30
2023-05-05T06:58:38.852Z,2.27
2023-05-05T07:01:06.262Z,2.70
2023-05-05T07:03:34.089Z,2.90
2023-05-05T07:06:01.479Z,2.83
2023-05-05T07:08:30.157Z,2.90
2023-05-05T07:10:57.559Z,3.00
2023-05-05T07:13:24.918Z,3.20
2023-05-05T07:15:52.402Z,2.90
2023-05-05T07:18:20.458Z,3.00
2023-05-05T07:20:47.845Z,2.40
2023-05-05T07:23:15.266Z,2.60
2023-05-05T07:25:43.974Z,2.33
2023-05-05T07:28:12.241Z,2.00
2023-05-05T07:30:39.592Z,2.27
2023-05-05T07:33:06.997Z,1.87
2023-05-05T07:35:34.388Z,1.80
2023-05-05T07:38:02.163Z,2.23
2023-05-05T07:40:29.635Z,1.63
2023-05-05T07:42:58.300Z,2.10
2023-05-05T07:45:25.898Z,1.93
2023-05-05T07:47:53.329Z,2.40
2023-05-05T07:50:20.712Z,1.73
2023-05-05T07:52:53.908Z,2.13
2023-05-05T07:55:29.680Z,2.00
2023-05-05T07:57:58.379Z,1.77
2023-05-05T08:00:26.048Z,2.00
2023-05-05T08:02:53.510Z,2.00
2023-05-05T08:05:20.919Z,1.93
2023-05-05T08:07:48.306Z,1.70
2023-05-05T08:10:15.980Z,1.80
2023-05-05T08:12:43.550Z,1.90
2023-05-05T08:15:12.573Z,2.00
2023-05-05T08:17:49.758Z,1.50
2023-05-05T08:20:17.319Z,2.33
2023-05-05T08:22:45.117Z,2.10
2023-05-05T08:25:13.377Z,2.10
2023-05-05T08:27:41.126Z,2.17
2023-05-05T08:30:09.580Z,2.00
2023-05-05T08:32:38.968Z,1.80
2023-05-05T08:35:07.570Z,2.03
2023-05-05T08:37:37.082Z,1.63
2023-05-05T08:40:04.701Z,1.80
2023-05-05T08:42:37.178Z,2.20
2023-05-05T08:45:06.396Z,1.80
2023-05-05T08:47:34.120Z,2.10
2023-05-05T08:50:03.203Z,2.10
2023-05-05T08:52:39.299Z,2.17
2023-05-05T08:55:10.085Z,1.80
2023-05-05T08:57:41.344Z,2.50
2023-05-05T09:00:09.802Z,1.80
2023-05-05T09:02:38.021Z,2.30
2023-05-05T09:05:08.409Z,2.37
2023-05-05T09:07:36.069Z,1.87
2023-05-05T09:10:04.448Z,2.20
2023-05-05T09:12:32.288Z,2.20
2023-05-05T09:15:03.470Z,2.33
2023-05-05T09:17:31.677Z,2.30
2023-05-05T09:20:03.166Z,2.40
2023-05-05T09:22:36.448Z,2.70
2023-05-05T09:25:04.221Z,2.40
2023-05-05T09:27:31.609Z,2.57
2023-05-05T09:29:59.078Z,2.33
2023-05-05T09:32:28.617Z,2.50
2023-05-05T09:34:57.940Z,2.60
2023-05-05T09:37:28.498Z,2.27
2023-05-05T09:39:57.538Z,2.40
2023-05-05T09:42:25.131Z,2.70
2023-05-05T09:44:52.483Z,2.53
2023-05-05T09:47:29.649Z,2.40
2023-05-05T09:49:58.573Z,2.13
2023-05-05T09:52:25.924Z,2.43
2023-05-05T09:54:57.847Z,2.00
2023-05-05T09:57:28.921Z,2.30
2023-05-05T09:59:57.270Z,1.97
2023-05-05T10:02:32.671Z,2.17
2023-05-05T10:05:07.144Z,1.90
2023-05-05T10:07:34.765Z,2.03
2023-05-05T10:10:04.184Z,2.10
2023-05-05T10:12:32.359Z,1.80
2023-05-05T10:15:01.934Z,1.90
2023-05-05T10:17:31.274Z,1.77
2023-05-05T10:20:00.824Z,2.00
2023-05-05T10:22:30.340Z,1.80
2023-05-05T10:24:58.896Z,1.90
2023-05-05T10:27:29.147Z,2.10
2023-05-05T10:30:01.461Z,1.80
2023-05-05T10:35:03.884Z,2.10
2023-05-05T10:37:31.914Z,2.07
2023-05-05T10:39:59.571Z,2.00
2023-05-05T10:42:28.642Z,1.83
2023-05-05T10:44:56.208Z,1.80
2023-05-05T10:47:24.484Z,1.63
2023-05-05T10:49:54.939Z,1.73
2023-05-05T10:52:26.836Z,1.60
2023-05-05T10:54:57.471Z,1.70
2023-05-05T10:57:26.365Z,1.90
2023-05-05T10:59:55.059Z,1.70
2023-05-05T11:02:23.501Z,7.77
2023-05-05T11:05:07.105Z,2.03
2023-05-05T11:07:34.699Z,1.73
2023-05-05T11:10:02.670Z,1.43
2023-05-05T11:12:30.486Z,2.20
2023-05-05T11:15:13.301Z,1.83
2023-05-05T11:17:48.345Z,1.70
2023-05-05T11:20:16.241Z,1.47
2023-05-05T11:23:05.336Z,1.60
2023-05-05T11:25:48.177Z,1.70
2023-05-05T11:28:16.241Z,1.50
2023-05-05T11:30:59.229Z,1.90
2023-05-05T11:33:30.748Z,2.10
2023-05-05T11:35:58.573Z,1.60
2023-05-05T11:38:27.388Z,2.00
2023-05-05T11:40:57.507Z,1.80
2023-05-05T11:43:24.876Z,1.80
2023-05-05T11:46:10.349Z,1.87
2023-05-05T11:48:46.599Z,1.97
2023-05-05T11:51:14.154Z,1.97
2023-05-05T11:53:42.936Z,2.33
2023-05-05T11:56:11.344Z,1.90
2023-05-05T11:58:38.788Z,2.00
2023-05-05T12:01:06.997Z,4.00
2023-05-05T12:03:38.117Z,2.43
2023-05-05T12:06:07.368Z,2.10
2023-05-05T12:08:37.840Z,2.20
2023-05-05T12:11:05.330Z,2.10
2023-05-05T12:13:32.664Z,1.90
2023-05-05T12:16:08.910Z,2.00
2023-05-05T12:18:36.337Z,2.10
2023-05-05T12:21:04.092Z,1.90
2023-05-05T12:23:39.421Z,2.10
2023-05-05T12:26:07.628Z,2.10
2023-05-05T12:28:44.347Z,2.20
2023-05-05T12:31:11.917Z,2.30
2023-05-05T12:33:39.770Z,1.87
2023-05-05T12:36:08.652Z,2.17
2023-05-05T12:38:36.253Z,2.00
2023-05-05T12:41:05.135Z,2.20
2023-05-05T12:43:33.014Z,1.63
2023-05-05T12:46:07.547Z,1.77
2023-05-05T12:48:35.662Z,2.00
2023-05-05T12:51:13.481Z,2.13
2023-05-05T12:53:40.828Z,2.00
2023-05-05T12:56:29.729Z,1.73
2023-05-05T12:58:57.152Z,1.70
2023-05-05T13:01:24.652Z,4.27
2023-05-05T13:04:04.770Z,3.53
2023-05-05T13:06:32.622Z,2.00
2023-05-05T13:08:59.971Z,2.27
2023-05-05T13:11:28.740Z,1.90
2023-05-05T13:13:56.430Z,2.03
2023-05-05T13:16:23.902Z,2.00
2023-05-05T13:18:52.117Z,2.20
2023-05-05T13:21:19.474Z,1.73
2023-05-05T13:23:47.043Z,2.03
2023-05-05T13:26:14.613Z,2.03
2023-05-05T13:28:43.306Z,2.00
2023-05-05T13:31:10.797Z,2.40
2023-05-05T13:33:38.221Z,2.00
2023-05-05T13:36:05.689Z,2.03
2023-05-05T13:38:33.293Z,2.30
2023-05-05T13:41:01.088Z,1.90
2023-05-05T13:43:28.469Z,2.17
2023-05-05T13:46:05.712Z,2.60
2023-05-05T13:48:39.835Z,1.63
2023-05-05T13:51:07.378Z,1.60
2023-05-05T13:53:35.156Z,1.80
2023-05-05T13:56:03.439Z,1.80
2023-05-05T13:58:30.862Z,2.00
2023-05-05T14:00:59.584Z,1.83
2023-05-05T14:03:26.987Z,2.17
2023-05-05T14:05:54.348Z,2.00
2023-05-05T14:08:21.685Z,1.70
2023-05-05T14:10:50.110Z,2.07
2023-05-05T14:13:19.127Z,1.63
2023-05-05T14:15:47.093Z,1.73
2023-05-05T14:18:15.773Z,2.20
2023-05-05T14:20:43.418Z,1.87
2023-05-05T14:23:10.778Z,1.93
2023-05-05T14:25:38.233Z,1.60
2023-05-05T14:28:05.646Z,1.87
2023-05-05T14:30:33.122Z,1.73
2023-05-05T14:33:01.198Z,1.70
2023-05-05T14:35:31.025Z,1.70
2023-05-05T14:37:58.591Z,2.10
2023-05-05T14:40:26.358Z,1.70
2023-05-05T14:42:53.719Z,2.23
2023-05-05T14:45:21.237Z,1.70
2023-05-05T14:47:48.723Z,1.80
2023-05-05T14:50:16.259Z,1.73
2023-05-05T14:52:45.618Z,1.90
2023-05-05T14:55:12.971Z,1.80
2023-05-05T14:57:40.345Z,1.43
2023-05-05T15:00:08.197Z,1.50
2023-05-05T15:02:35.610Z,1.77
2023-05-05T15:05:03.123Z,1.70
2023-05-05T15:07:30.922Z,2.03
2023-05-05T15:10:00.085Z,1.90
2023-05-05T15:12:27.910Z,2.30
2023-05-05T15:14:56.204Z,2.13
2023-05-05T15:17:23.570Z,2.13
2023-05-05T15:19:51.103Z,2.13
2023-05-05T15:22:21.053Z,2.07
2023-05-05T15:24:48.794Z,2.50
2023-05-05T15:27:18.533Z,2.57
2023-05-05T15:29:46.202Z,2.27
2023-05-05T15:32:13.704Z,2.30
2023-05-05T15:34:41.190Z,2.03
2023-05-05T15:37:08.548Z,2.30
2023-05-05T15:39:36.351Z,6.07
2023-05-05T15:42:03.805Z,2.97
2023-05-05T15:44:32.523Z,2.00
2023-05-05T15:46:59.914Z,1.83
2023-05-05T15:49:27.551Z,1.93
2023-05-05T15:51:55.015Z,2.20
2023-05-05T15:54:22.411Z,2.10
2023-05-05T15:56:49.754Z,1.83
2023-05-05T15:59:17.083Z,2.13
2023-05-05T16:01:45.774Z,2.00
2023-05-05T16:04:13.203Z,1.93
2023-05-05T16:06:40.671Z,2.13
2023-05-05T16:09:08.072Z,2.30
2023-05-05T16:11:37.069Z,1.73
2023-05-05T16:14:04.650Z,2.60
2023-05-05T16:16:32.027Z,2.00
2023-05-05T16:19:00.862Z,2.17
2023-05-05T16:21:28.413Z,2.13
2023-05-05T16:23:56.330Z,2.13
2023-05-05T16:26:23.708Z,1.87
2023-05-05T16:28:51.216Z,2.10
2023-05-05T16:31:18.652Z,2.20
2023-05-05T16:33:46.120Z,2.50
2023-05-05T16:36:15.085Z,2.53
2023-05-05T16:38:43.721Z,2.37
2023-05-05T16:41:11.297Z,2.40
2023-05-05T16:43:38.745Z,2.60
2023-05-05T16:46:06.932Z,3.50
2023-05-05T16:48:34.398Z,5.60
2023-05-05T16:51:02.072Z,4.70
2023-05-05T16:53:31.176Z,3.37
2023-05-05T16:55:58.684Z,2.50
2023-05-05T16:58:26.162Z,2.30
2023-05-05T17:00:54.504Z,2.30
2023-05-05T17:03:22.575Z,2.50
2023-05-05T17:05:50.551Z,2.60
2023-05-05T17:08:17.976Z,2.87
2023-05-05T17:10:46.665Z,2.90
2023-05-05T17:13:14.894Z,3.00
2023-05-05T17:15:43.555Z,3.10
2023-05-05T17:18:13.291Z,3.43
2023-05-05T17:20:40.922Z,2.70
2023-05-05T17:23:08.946Z,2.60
2023-05-05T17:25:36.332Z,2.60
2023-05-05T17:28:05.190Z,2.30
2023-05-05T17:30:32.525Z,2.20
2023-05-05T17:33:03.385Z,2.10
2023-05-05T17:35:30.802Z,2.40
2023-05-05T17:37:58.144Z,2.43
2023-05-05T17:40:25.493Z,2.20
2023-05-05T17:42:53.000Z,3.17
2023-05-05T17:45:24.139Z,3.63
2023-05-05T17:47:51.527Z,3.37
2023-05-05T17:50:19.110Z,3.67
2023-05-05T17:52:46.503Z,3.07
2023-05-05T17:55:13.853Z,3.20
2023-05-05T17:57:41.198Z,2.60
2023-05-05T18:00:09.739Z,2.43
2023-05-05T18:02:41.928Z,2.40
2023-05-05T18:05:09.898Z,2.57
2023-05-05T18:07:38.514Z,2.60
2023-05-05T18:10:08.128Z,3.30
2023-05-05T18:12:35.604Z,2.90
2023-05-05T18:15:03.173Z,2.40
2023-05-05T18:17:30.636Z,3.20
2023-05-05T18:19:59.421Z,2.30
2023-05-05T18:22:26.744Z,2.83
2023-05-05T18:24:58.809Z,2.60
2023-05-05T18:27:26.718Z,2.90
2023-05-05T18:29:54.136Z,2.47
2023-05-05T18:32:21.718Z,3.17
2023-05-05T18:34:49.330Z,3.13
2023-05-05T18:37:17.987Z,3.50
2023-05-05T18:39:45.498Z,4.13
2023-05-05T18:42:13.806Z,7.77
2023-05-05T18:44:41.557Z,9.37
2023-05-05T18:47:09.109Z,9.23
2023-05-05T18:49:36.652Z,8.60
2023-05-05T18:52:04.124Z,6.90
2023-05-05T18:54:32.844Z,5.60
2023-05-05T18:57:00.192Z,4.87
2023-05-05T18:59:27.541Z,3.93
2023-05-05T19:01:54.967Z,3.20
2023-05-05T19:04:30.672Z,2.90
2023-05-05T19:06:58.882Z,3.10
2023-05-05T19:09:26.294Z,3.07
2023-05-05T19:11:55.006Z,3.13
2023-05-05T19:14:22.533Z,2.63
2023-05-05T19:16:50.024Z,3.17
2023-05-05T19:19:17.476Z,3.40
2023-05-05T19:21:45.065Z,2.83
2023-05-05T19:24:12.548Z,3.17
2023-05-05T19:26:40.383Z,2.93
2023-05-05T19:29:09.048Z,2.70
2023-05-05T19:31:36.513Z,2.63
2023-05-05T19:34:04.896Z,2.40
2023-05-05T19:36:32.704Z,2.47
2023-05-05T19:39:00.483Z,2.87
2023-05-05T19:41:28.001Z,2.77
2023-05-05T19:43:55.355Z,3.10
2023-05-05T19:46:25.464Z,2.80
2023-05-05T19:48:52.872Z,2.90
2023-05-05T19:51:20.220Z,3.00
2023-05-05T19:53:47.620Z,2.90
2023-05-05T19:56:14.978Z,2.80
2023-05-05T19:58:53.574Z,2.80
2023-05-05T20:01:21.268Z,2.77
2023-05-05T20:03:50.115Z,2.30
2023-05-05T20:06:17.589Z,2.60
2023-05-05T20:08:44.933Z,2.30
2023-05-05T20:11:12.565Z,2.50
2023-05-05T20:13:40.111Z,2.30
2023-05-05T20:16:07.567Z,2.23
2023-05-05T20:18:35.029Z,2.80
2023-05-05T20:21:03.814Z,2.90
2023-05-05T20:23:31.256Z,3.00
2023-05-05T20:25:58.661Z,2.50
2023-05-05T20:28:26.102Z,2.60
2023-05-05T20:30:53.485Z,3.00
2023-05-05T20:33:20.810Z,2.60
2023-05-05T20:35:48.388Z,2.70
2023-05-05T20:38:17.255Z,2.83
2023-05-05T20:40:44.630Z,2.77
2023-05-05T20:43:12.086Z,3.40
2023-05-05T20:45:39.676Z,3.23
2023-05-05T20:48:09.776Z,3.27
2023-05-05T20:50:37.752Z,3.10
2023-05-05T20:53:05.124Z,3.53
2023-05-05T20:55:33.866Z,3.00
2023-05-05T20:58:01.248Z,3.40
2023-05-05T21:00:28.603Z,3.53
2023-05-05T21:02:57.238Z,3.60
2023-05-05T21:05:24.679Z,3.77
2023-05-05T21:07:53.849Z,3.70
2023-05-05T21:10:21.452Z,3.10
2023-05-05T21:12:50.126Z,3.20
2023-05-05T21:15:17.533Z,3.07
2023-05-05T21:17:44.908Z,3.00
2023-05-05T21:20:13.101Z,2.97
2023-05-05T21:22:40.720Z,2.73
2023-05-05T21:25:11.669Z,2.87
2023-05-05T21:27:39.013Z,2.70
2023-05-05T21:30:11.202Z,2.97
2023-05-05T21:32:39.063Z,2.63
2023-05-05T21:35:07.423Z,3.00
2023-05-05T21:37:34.800Z,3.03
2023-05-05T21:40:02.180Z,3.17
2023-05-05T21:42:30.159Z,2.70
2023-05-05T21:44:57.604Z,3.33
2023-05-05T21:47:26.313Z,3.47
2023-05-05T21:49:53.668Z,2.97
2023-05-05T21:52:21.015Z,2.57
2023-05-05T21:54:48.362Z,3.40
2023-05-05T21:57:16.006Z,3.40
2023-05-05T21:59:43.420Z,3.00
2023-05-05T22:02:10.791Z,3.17
2023-05-05T22:04:39.763Z,3.33
2023-05-05T22:07:07.323Z,3.47
2023-05-05T22:09:35.220Z,3.47
2023-05-05T22:12:03.336Z,3.10
2023-05-05T22:14:30.866Z,3.67
2023-05-05T22:16:58.243Z,3.10
2023-05-05T22:19:25.619Z,3.40
2023-05-05T22:21:54.305Z,3.00
2023-05-05T22:24:21.649Z,3.00
2023-05-05T22:26:48.976Z,2.87
2023-05-05T22:29:16.596Z,3.20
2023-05-05T22:31:44.045Z,3.00
2023-05-05T22:34:11.567Z,3.00
2023-05-05T22:36:38.893Z,3.20
2023-05-05T22:39:07.575Z,3.10
2023-05-05T22:41:34.937Z,2.97
2023-05-05T22:44:02.625Z,2.90
2023-05-05T22:46:30.196Z,2.97
2023-05-05T22:48:57.546Z,2.63
